createdAt,value
2023-01-11T00:03:05.933Z,1.63
2023-01-11T00:06:29.521Z,1.40
2023-01-11T00:09:56.050Z,1.77
2023-01-11T00:13:20.338Z,1.33
2023-01-11T00:16:43.965Z,1.50
2023-01-11T00:20:10.915Z,1.20
2023-01-11T00:23:36.135Z,1.20
2023-01-11T00:27:00.019Z,1.40
2023-01-11T00:30:24.308Z,1.30
2023-01-11T00:33:48.000Z,1.43
2023-01-11T00:37:13.455Z,1.30
2023-01-11T00:40:37.326Z,1.47
2023-01-11T00:44:18.888Z,1.17
2023-01-11T00:48:04.837Z,1.10
2023-01-11T00:51:29.013Z,1.50
2023-01-11T00:54:54.702Z,1.90
2023-01-11T00:58:18.195Z,1.50
2023-01-11T01:01:43.274Z,1.53
2023-01-11T01:05:07.570Z,1.40
2023-01-11T01:08:34.183Z,1.30
2023-01-11T01:11:59.258Z,1.50
2023-01-11T01:15:22.208Z,1.50
2023-01-11T01:18:46.096Z,1.60
2023-01-11T01:22:10.050Z,1.60
2023-01-11T01:25:34.067Z,1.50
2023-01-11T01:28:59.495Z,1.33
2023-01-11T01:32:23.085Z,1.20
2023-01-11T01:35:47.088Z,1.80
2023-01-11T01:39:12.386Z,1.20
2023-01-11T01:42:35.983Z,1.30
2023-01-11T01:46:01.505Z,1.27
2023-01-11T01:49:25.111Z,1.30
2023-01-11T01:52:53.827Z,1.40
2023-01-11T01:56:25.779Z,1.33
2023-01-11T01:59:59.423Z,1.40
2023-01-11T02:03:27.889Z,1.67
2023-01-11T02:06:54.817Z,1.80
2023-01-11T02:10:20.704Z,1.20
2023-01-11T02:13:46.403Z,1.30
2023-01-11T02:17:10.238Z,1.50
2023-01-11T02:21:07.515Z,1.37
2023-01-11T02:24:53.843Z,1.80
2023-01-11T02:33:44.306Z,1.67
2023-01-11T02:37:26.412Z,1.57
2023-01-11T02:40:57.671Z,1.40
2023-01-11T02:44:45.409Z,1.37
2023-01-11T02:48:20.066Z,1.53
2023-01-11T02:51:51.314Z,1.10
2023-01-11T02:55:18.248Z,1.50
2023-01-11T02:58:48.841Z,1.40
2023-01-11T03:02:14.404Z,1.20
2023-01-11T03:05:45.085Z,1.50
2023-01-11T03:09:20.585Z,1.70
2023-01-11T03:12:54.698Z,1.70
2023-01-11T03:16:25.631Z,1.60
2023-01-11T03:19:53.235Z,1.50
2023-01-11T03:23:27.479Z,1.90
2023-01-11T03:27:07.210Z,1.70
2023-01-11T03:30:36.111Z,1.10
2023-01-11T03:34:06.629Z,1.30
2023-01-11T03:37:36.415Z,1.17
2023-01-11T03:41:07.535Z,0.90
2023-01-11T03:44:36.119Z,1.43
2023-01-11T03:48:02.668Z,1.00
2023-01-11T03:51:29.306Z,1.07
2023-01-11T03:54:54.514Z,1.00
2023-01-11T03:58:18.297Z,0.90
2023-01-11T04:01:45.107Z,1.20
2023-01-11T04:05:11.291Z,1.03
2023-01-11T04:08:35.217Z,1.20
2023-01-11T04:11:59.294Z,1.00
2023-01-11T04:15:23.234Z,1.10
2023-01-11T04:18:48.629Z,1.00
2023-01-11T04:22:12.534Z,1.10
2023-01-11T04:25:36.087Z,0.97
2023-01-11T04:29:00.331Z,0.90
2023-01-11T04:32:26.639Z,0.87
2023-01-11T04:35:51.598Z,0.80
2023-01-11T04:39:15.339Z,0.70
2023-01-11T04:42:39.321Z,0.70
2023-01-11T04:46:05.633Z,0.87
2023-01-11T04:49:31.026Z,0.90
2023-01-11T04:53:00.404Z,0.90
2023-01-11T04:56:24.273Z,0.97
2023-01-11T04:59:48.336Z,0.90
2023-01-11T05:03:12.266Z,0.60
2023-01-11T05:06:43.840Z,0.77
2023-01-11T05:10:10.996Z,0.80
2023-01-11T05:13:45.520Z,0.80
2023-01-11T05:17:13.378Z,0.90
2023-01-11T05:20:37.304Z,0.80
2023-01-11T05:24:04.622Z,0.90
2023-01-11T05:27:29.497Z,0.80
2023-01-11T05:30:54.128Z,0.70
2023-01-11T05:34:19.197Z,0.87
2023-01-11T05:37:43.364Z,0.60
2023-01-11T05:41:08.445Z,0.70
2023-01-11T05:44:51.186Z,0.60
2023-01-11T05:48:15.720Z,0.77
2023-01-11T05:51:39.864Z,0.60
2023-01-11T05:55:04.715Z,0.60
2023-01-11T05:58:31.609Z,0.70
2023-01-11T06:01:59.697Z,0.70
2023-01-11T06:05:24.898Z,0.87
2023-01-11T06:08:56.938Z,0.60
2023-01-11T06:12:20.638Z,0.70
2023-01-11T06:15:44.532Z,0.73
2023-01-11T06:19:11.306Z,0.80
2023-01-11T06:22:35.461Z,0.60
2023-01-11T06:26:02.180Z,0.80
2023-01-11T06:29:26.414Z,0.73
2023-01-11T06:32:52.662Z,1.00
2023-01-11T06:36:20.293Z,0.70
2023-01-11T06:39:45.407Z,0.73
2023-01-11T06:43:10.658Z,0.80
2023-01-11T06:46:34.520Z,0.80
2023-01-11T06:49:58.480Z,1.00
2023-01-11T06:53:26.746Z,1.07
2023-01-11T06:56:52.470Z,0.83
2023-01-11T07:00:17.476Z,0.63
2023-01-11T07:03:41.639Z,0.70
2023-01-11T07:07:05.437Z,0.90
2023-01-11T07:10:31.229Z,1.10
2023-01-11T07:13:59.058Z,0.80
2023-01-11T07:17:23.421Z,0.70
2023-01-11T07:20:47.844Z,0.87
2023-01-11T07:24:11.579Z,0.90
2023-01-11T07:27:36.561Z,1.00
2023-01-11T07:31:00.761Z,0.90
2023-01-11T07:34:26.055Z,0.90
2023-01-11T07:37:53.136Z,1.00
2023-01-11T07:41:34.988Z,3.17
2023-01-11T07:45:03.939Z,1.73
2023-01-11T07:48:29.222Z,0.83
2023-01-11T07:51:53.547Z,0.93
2023-01-11T07:55:17.586Z,6.47
2023-01-11T07:58:41.568Z,1.40
2023-01-11T08:02:10.010Z,1.10
2023-01-11T08:05:33.822Z,1.50
2023-01-11T08:09:00.119Z,0.90
2023-01-11T08:12:41.052Z,1.17
2023-01-11T08:16:05.333Z,1.90
2023-01-11T08:19:30.589Z,1.50
2023-01-11T08:22:54.572Z,1.53
2023-01-11T08:26:18.521Z,1.20
2023-01-11T08:29:44.261Z,1.43
2023-01-11T08:33:07.896Z,2.00
2023-01-11T08:36:32.834Z,2.63
2023-01-11T08:39:56.854Z,2.43
2023-01-11T08:43:20.468Z,1.97
2023-01-11T08:46:44.739Z,1.97
2023-01-11T08:50:09.618Z,2.00
2023-01-11T08:53:34.843Z,1.97
2023-01-11T08:56:58.667Z,3.30
2023-01-11T09:00:22.492Z,3.87
2023-01-11T09:03:46.080Z,4.17
2023-01-11T09:07:09.655Z,4.83
2023-01-11T09:10:35.115Z,4.53
2023-01-11T09:13:58.678Z,3.57
2023-01-11T09:17:22.260Z,3.67
2023-01-11T09:20:45.864Z,5.80
2023-01-11T09:24:09.775Z,4.10
2023-01-11T09:27:34.708Z,3.90
2023-01-11T09:30:58.321Z,5.90
2023-01-11T09:34:22.371Z,4.57
2023-01-11T09:37:50.219Z,5.70
2023-01-11T09:41:30.981Z,6.80
2023-01-11T09:45:00.339Z,7.70
2023-01-11T09:48:33.146Z,8.47
2023-01-11T09:52:05.159Z,6.10
2023-01-11T09:55:40.985Z,8.43
2023-01-11T09:59:14.841Z,6.70
2023-01-11T10:02:51.382Z,7.80
2023-01-11T10:06:19.954Z,6.33
2023-01-11T10:18:27.364Z,12.00
2023-01-11T10:21:23.394Z,7.17
2023-01-11T10:24:50.595Z,7.53
2023-01-11T10:28:22.921Z,5.70
2023-01-11T10:32:09.714Z,7.40
2023-01-11T10:36:02.787Z,6.03
2023-01-11T10:39:50.605Z,8.07
2023-01-11T10:43:21.935Z,8.97
2023-01-11T10:46:49.295Z,7.50
2023-01-11T10:50:21.374Z,9.10
2023-01-11T10:53:55.788Z,8.60
2023-01-11T10:57:32.073Z,7.33
2023-01-11T11:01:08.594Z,7.00
2023-01-11T11:04:55.659Z,7.33
2023-01-11T11:08:27.466Z,8.70
2023-01-11T11:11:54.962Z,7.90
2023-01-11T11:15:25.432Z,8.80
2023-01-11T11:18:50.442Z,8.17
2023-01-11T11:22:14.623Z,9.73
2023-01-11T11:25:42.608Z,8.83
2023-01-11T11:29:09.019Z,8.47
2023-01-11T11:32:37.204Z,7.83
2023-01-11T11:36:07.505Z,7.80
2023-01-11T11:39:32.731Z,8.73
2023-01-11T11:43:11.703Z,9.80
2023-01-11T11:46:41.139Z,8.40
2023-01-11T11:50:44.200Z,9.00
2023-01-11T11:54:21.221Z,8.50
2023-01-11T11:57:45.371Z,9.27
2023-01-11T12:01:23.086Z,8.43
2023-01-11T12:04:49.500Z,8.53
2023-01-11T12:08:17.510Z,7.50
2023-01-11T12:11:42.960Z,7.50
2023-01-11T12:15:19.174Z,6.53
2023-01-11T12:18:43.731Z,6.50
2023-01-11T12:22:18.709Z,6.77
2023-01-11T12:26:06.281Z,5.60
2023-01-11T12:29:49.883Z,6.53
2023-01-11T12:33:29.544Z,5.77
2023-01-11T12:37:01.617Z,4.60
2023-01-11T12:40:34.383Z,5.80
2023-01-11T12:44:07.394Z,5.77
2023-01-11T12:47:55.180Z,5.33
2023-01-11T12:51:35.528Z,7.70
2023-01-11T12:55:15.268Z,11.50
2023-01-11T12:58:45.471Z,6.03
2023-01-11T13:02:30.711Z,7.13
2023-01-11T13:06:03.132Z,10.63
2023-01-11T13:09:40.589Z,28.67
2023-01-11T13:13:16.184Z,7.50
2023-01-11T13:16:48.299Z,6.93
2023-01-11T13:20:29.352Z,6.73
2023-01-11T13:23:56.189Z,4.60
2023-01-11T13:27:23.442Z,6.27
2023-01-11T13:30:48.180Z,5.60
2023-01-11T13:34:18.824Z,5.57
2023-01-11T13:37:49.159Z,5.93
2023-01-11T13:41:18.812Z,5.80
2023-01-11T13:44:48.728Z,6.53
2023-01-11T13:48:19.401Z,9.87
2023-01-11T13:51:47.710Z,5.07
2023-01-11T13:55:26.092Z,4.70
2023-01-11T13:58:57.051Z,4.50
2023-01-11T14:02:29.231Z,4.80
2023-01-11T14:06:03.493Z,3.87
2023-01-11T14:09:44.057Z,4.53
2023-01-11T14:13:53.867Z,4.57
2023-01-11T14:17:38.387Z,4.60
2023-01-11T14:21:08.002Z,4.57
2023-01-11T14:24:36.269Z,4.37
2023-01-11T14:28:27.162Z,4.60
2023-01-11T14:32:13.329Z,4.13
2023-01-11T14:35:57.797Z,4.70
2023-01-11T14:39:40.419Z,4.23
2023-01-11T14:43:31.167Z,4.47
2023-01-11T14:47:26.738Z,5.50
2023-01-11T14:51:07.143Z,3.93
2023-01-11T14:54:35.699Z,4.40
2023-01-11T14:58:05.762Z,4.80
2023-01-11T15:01:30.755Z,5.70
2023-01-11T15:05:42.202Z,4.70
2023-01-11T15:09:44.892Z,4.40
2023-01-11T15:13:14.326Z,4.80
2023-01-11T15:16:57.443Z,4.80
2023-01-11T15:20:23.287Z,4.53
2023-01-11T15:23:51.437Z,4.77
2023-01-11T15:27:25.289Z,4.97
2023-01-11T15:30:56.141Z,4.60
2023-01-11T15:34:27.109Z,5.13
2023-01-11T15:37:57.084Z,5.93
2023-01-11T15:41:50.282Z,5.57
2023-01-11T15:45:59.958Z,5.07
2023-01-11T15:49:59.592Z,6.73
2023-01-11T15:53:56.541Z,5.80
2023-01-11T15:57:44.430Z,5.10
2023-01-11T16:01:21.410Z,5.27
2023-01-11T16:04:50.061Z,5.33
2023-01-11T16:08:24.232Z,7.13
2023-01-11T16:12:00.422Z,5.67
2023-01-11T16:15:36.620Z,6.30
2023-01-11T16:19:06.446Z,6.03
2023-01-11T16:22:30.525Z,6.10
2023-01-11T16:25:57.657Z,6.80
2023-01-11T16:29:26.063Z,6.43
2023-01-11T16:32:49.942Z,7.13
2023-01-11T16:36:15.587Z,6.60
2023-01-11T16:39:39.173Z,6.13
2023-01-11T16:43:07.586Z,6.40
2023-01-11T16:47:13.710Z,6.83
2023-01-11T16:50:38.126Z,4.83
2023-01-11T16:54:02.866Z,8.23
2023-01-11T16:57:33.464Z,6.40
2023-01-11T17:00:59.779Z,7.60
2023-01-11T17:04:30.719Z,6.37
2023-01-11T17:07:55.343Z,6.03
2023-01-11T17:11:27.889Z,6.53
2023-01-11T17:15:08.272Z,6.03
2023-01-11T17:18:32.761Z,7.00
2023-01-11T17:22:04.291Z,7.80
2023-01-11T17:25:41.045Z,9.10
2023-01-11T17:29:09.255Z,8.77
2023-01-11T17:32:37.831Z,7.40
2023-01-11T17:36:02.507Z,7.37
2023-01-11T17:39:32.269Z,7.23
2023-01-11T17:43:18.537Z,8.40
2023-01-11T17:46:42.766Z,8.33
2023-01-11T17:50:19.436Z,7.20
2023-01-11T17:53:50.623Z,7.40
2023-01-11T17:57:17.313Z,7.13
2023-01-11T18:00:44.579Z,6.30
2023-01-11T18:04:19.232Z,6.37
2023-01-11T18:07:44.781Z,5.77
2023-01-11T18:11:08.489Z,6.27
2023-01-11T18:14:39.415Z,5.37
2023-01-11T18:18:05.970Z,6.50
2023-01-11T18:21:42.296Z,6.00
2023-01-11T18:25:18.882Z,5.80
2023-01-11T18:28:43.905Z,5.83
2023-01-11T18:32:11.643Z,7.53
2023-01-11T18:35:43.694Z,5.70
2023-01-11T18:39:11.238Z,5.47
2023-01-11T18:42:34.892Z,6.03
2023-01-11T18:45:58.608Z,5.30
2023-01-11T18:49:23.533Z,6.47
2023-01-11T18:52:47.040Z,6.20
2023-01-11T18:56:10.821Z,6.80
2023-01-11T18:59:34.356Z,6.70
2023-01-11T19:02:58.227Z,5.83
2023-01-11T19:06:23.089Z,5.70
2023-01-11T19:09:46.637Z,6.80
2023-01-11T19:13:10.647Z,5.63
2023-01-11T19:16:34.193Z,6.93
2023-01-11T19:19:57.690Z,6.10
2023-01-11T19:26:46.186Z,7.07
2023-01-11T19:30:11.980Z,5.30
2023-01-11T19:33:35.499Z,6.00
2023-01-11T19:36:59.606Z,6.13
2023-01-11T19:40:24.960Z,5.60
2023-01-11T19:43:48.609Z,5.63
2023-01-11T19:47:15.452Z,7.00
2023-01-11T19:50:39.916Z,6.07
2023-01-11T19:54:04.143Z,6.43
2023-01-11T19:57:29.661Z,5.20
2023-01-11T20:00:53.241Z,6.33
2023-01-11T20:04:18.131Z,5.77
2023-01-11T20:07:41.764Z,4.20
2023-01-11T20:11:07.554Z,4.70
2023-01-11T20:14:34.013Z,4.60
2023-01-11T20:17:58.850Z,4.93
2023-01-11T20:21:23.924Z,5.10
2023-01-11T20:24:47.568Z,4.47
2023-01-11T20:28:11.097Z,5.57
2023-01-11T20:31:36.667Z,5.90
2023-01-11T20:35:00.293Z,4.63
2023-01-11T20:38:24.125Z,5.40
2023-01-11T20:41:48.524Z,5.83
2023-01-11T20:45:13.139Z,5.00
2023-01-11T20:48:39.344Z,5.70
2023-01-11T20:52:02.994Z,5.20
2023-01-11T20:55:26.764Z,6.13
2023-01-11T20:58:51.423Z,6.77
2023-01-11T21:02:15.079Z,4.27
2023-01-11T21:05:40.383Z,4.37
2023-01-11T21:09:05.502Z,4.90
2023-01-11T21:12:29.146Z,5.80
2023-01-11T21:15:52.757Z,4.60
2023-01-11T21:19:16.796Z,4.90
2023-01-11T21:22:42.009Z,7.43
2023-01-11T21:26:11.545Z,5.47
2023-01-11T21:29:35.469Z,5.60
2023-01-11T21:32:59.554Z,4.37
2023-01-11T21:36:25.268Z,5.77
2023-01-11T21:39:52.187Z,5.33
2023-01-11T21:43:16.045Z,5.03
2023-01-11T21:46:40.257Z,6.00
2023-01-11T21:50:04.745Z,4.73
2023-01-11T21:53:30.664Z,5.53
2023-01-11T21:56:55.612Z,5.90
2023-01-11T22:00:20.410Z,5.73
2023-01-11T22:03:43.949Z,5.73
2023-01-11T22:07:07.587Z,5.30
2023-01-11T22:10:31.351Z,5.83
2023-01-11T22:13:56.585Z,5.80
2023-01-11T22:17:20.322Z,4.57
2023-01-11T22:20:44.254Z,5.30
2023-01-11T22:24:10.957Z,4.33
2023-01-11T22:27:35.042Z,4.40
2023-01-11T22:31:06.355Z,4.80
2023-01-11T22:34:34.408Z,3.77
2023-01-11T22:37:58.530Z,3.97
2023-01-11T22:41:24.102Z,4.10
2023-01-11T22:44:47.865Z,5.30
2023-01-11T22:48:13.027Z,4.90
2023-01-11T22:51:37.031Z,4.20
2023-01-11T22:55:00.733Z,3.47
2023-01-11T22:58:24.291Z,4.50
2023-01-11T23:01:47.853Z,3.23
2023-01-11T23:05:13.069Z,3.13
2023-01-11T23:08:40.705Z,3.20
2023-01-11T23:12:22.217Z,3.57
2023-01-11T23:15:46.529Z,3.40
2023-01-11T23:19:12.553Z,3.47
2023-01-11T23:22:37.437Z,3.43
2023-01-11T23:26:01.631Z,2.67
2023-01-11T23:29:25.612Z,3.47
2023-01-11T23:32:49.572Z,3.73
2023-01-11T23:36:13.711Z,2.57
2023-01-11T23:39:38.966Z,3.47
2023-01-11T23:43:02.603Z,3.80
2023-01-11T23:46:44.573Z,4.17
2023-01-11T23:50:09.661Z,3.70
2023-01-11T23:53:33.648Z,4.93
2023-01-11T23:57:00.180Z,4.13
